sensor_id;sensor_type;location;lat;lon;timestamp;pressure;altitude;pressure_sealevel;temperature;humidity
58245;BME280;44550;43.864;25.986;2023-04-01T00:02:54;100163.78;;;12.27;70.83
58245;BME280;44550;43.864;25.986;2023-04-01T00:06:55;100164.63;;;12.32;70.73
58245;BME280;44550;43.864;25.986;2023-04-01T00:10:58;100153.22;;;12.34;70.60
58245;BME280;44550;43.864;25.986;2023-04-01T00:15:18;100149.72;;;12.34;70.42
58245;BME280;44550;43.864;25.986;2023-04-01T00:19:36;100136.59;;;12.38;70.21
58245;BME280;44550;43.864;25.986;2023-04-01T00:23:53;100124.25;;;12.46;70.08
58245;BME280;44550;43.864;25.986;2023-04-01T00:27:55;100119.06;;;12.42;70.26
58245;BME280;44550;43.864;25.986;2023-04-01T00:32:07;100121.88;;;12.25;70.61
58245;BME280;44550;43.864;25.986;2023-04-01T00:36:12;100111.47;;;12.14;71.02
58245;BME280;44550;43.864;25.986;2023-04-01T00:40:30;100115.06;;;12.06;71.22
58245;BME280;44550;43.864;25.986;2023-04-01T00:44:36;100115.91;;;12.08;71.25
58245;BME280;44550;43.864;25.986;2023-04-01T00:48:57;100109.00;;;11.99;71.88
58245;BME280;44550;43.864;25.986;2023-04-01T00:53:03;100089.81;;;11.95;72.31
58245;BME280;44550;43.864;25.986;2023-04-01T00:57:19;100086.41;;;11.86;72.84
58245;BME280;44550;43.864;25.986;2023-04-01T01:01:36;100083.91;;;11.67;73.54
58245;BME280;44550;43.864;25.986;2023-04-01T01:05:55;100076.13;;;11.58;73.91
58245;BME280;44550;43.864;25.986;2023-04-01T01:10:02;100073.44;;;11.69;73.43
58245;BME280;44550;43.864;25.986;2023-04-01T01:18:47;100057.69;;;11.73;72.84
58245;BME280;44550;43.864;25.986;2023-04-01T01:23:06;100054.13;;;11.79;72.59
58245;BME280;44550;43.864;25.986;2023-04-01T01:27:28;100056.53;;;12.04;71.70
58245;BME280;44550;43.864;25.986;2023-04-01T01:31:44;100052.94;;;12.15;70.58
58245;BME280;44550;43.864;25.986;2023-04-01T01:36:09;100041.72;;;12.03;70.99
58245;BME280;44550;43.864;25.986;2023-04-01T01:40:16;100040.00;;;11.98;70.99
58245;BME280;44550;43.864;25.986;2023-04-01T01:44:22;100030.44;;;11.96;71.19
58245;BME280;44550;43.864;25.986;2023-04-01T01:48:34;100023.44;;;11.95;71.31
58245;BME280;44550;43.864;25.986;2023-04-01T01:52:46;100023.25;;;12.12;70.71
58245;BME280;44550;43.864;25.986;2023-04-01T01:56:59;100014.91;;;12.53;69.71
58245;BME280;44550;43.864;25.986;2023-04-01T02:01:13;100001.56;;;12.72;68.21
58245;BME280;44550;43.864;25.986;2023-04-01T02:05:26;100004.25;;;11.91;70.62
58245;BME280;44550;43.864;25.986;2023-04-01T02:09:50;100007.41;;;11.32;73.33
58245;BME280;44550;43.864;25.986;2023-04-01T02:18:15;99990.06;;;11.20;74.28
58245;BME280;44550;43.864;25.986;2023-04-01T02:22:58;99979.44;;;11.40;73.51
58245;BME280;44550;43.864;25.986;2023-04-01T02:27:27;99985.22;;;11.72;72.42
58245;BME280;44550;43.864;25.986;2023-04-01T02:32:22;99974.34;;;12.12;70.69
58245;BME280;44550;43.864;25.986;2023-04-01T02:37:13;99972.31;;;12.34;73.06
58245;BME280;44550;43.864;25.986;2023-04-01T02:41:41;99955.84;;;12.25;69.85
58245;BME280;44550;43.864;25.986;2023-04-01T02:46:20;99959.88;;;11.74;71.63
58245;BME280;44550;43.864;25.986;2023-04-01T02:50:29;99958.28;;;11.60;72.51
58245;BME280;44550;43.864;25.986;2023-04-01T02:54:30;99946.94;;;11.62;72.38
58245;BME280;44550;43.864;25.986;2023-04-01T02:58:30;99946.00;;;11.66;72.47
58245;BME280;44550;43.864;25.986;2023-04-01T03:02:38;99944.97;;;11.83;72.12
58245;BME280;44550;43.864;25.986;2023-04-01T03:06:42;99943.66;;;12.22;70.74
58245;BME280;44550;43.864;25.986;2023-04-01T03:10:45;99943.63;;;12.23;70.15
58245;BME280;44550;43.864;25.986;2023-04-01T03:14:54;99935.91;;;12.13;70.56
58245;BME280;44550;43.864;25.986;2023-04-01T03:19:11;99938.03;;;11.77;72.10
58245;BME280;44550;43.864;25.986;2023-04-01T03:23:21;99943.19;;;11.88;71.78
58245;BME280;44550;43.864;25.986;2023-04-01T03:27:24;99947.53;;;11.90;71.82
58245;BME280;44550;43.864;25.986;2023-04-01T03:31:26;99936.72;;;12.15;71.99
58245;BME280;44550;43.864;25.986;2023-04-01T03:35:41;99936.66;;;12.22;72.61
58245;BME280;44550;43.864;25.986;2023-04-01T03:40:14;99940.81;;;11.62;75.95
58245;BME280;44550;43.864;25.986;2023-04-01T03:44:37;99941.25;;;12.04;74.22
58245;BME280;44550;43.864;25.986;2023-04-01T03:48:41;99936.84;;;12.09;73.15
58245;BME280;44550;43.864;25.986;2023-04-01T03:52:48;99932.09;;;11.61;74.51
58245;BME280;44550;43.864;25.986;2023-04-01T03:56:52;99929.28;;;11.78;74.09
58245;BME280;44550;43.864;25.986;2023-04-01T04:00:59;99936.84;;;12.09;72.81
58245;BME280;44550;43.864;25.986;2023-04-01T04:05:03;99924.31;;;12.31;72.09
58245;BME280;44550;43.864;25.986;2023-04-01T04:09:19;99921.69;;;12.32;71.97
58245;BME280;44550;43.864;25.986;2023-04-01T04:13:28;99917.41;;;12.25;72.65
58245;BME280;44550;43.864;25.986;2023-04-01T04:17:36;99908.72;;;12.20;72.72
58245;BME280;44550;43.864;25.986;2023-04-01T04:21:49;99911.22;;;12.29;72.64
58245;BME280;44550;43.864;25.986;2023-04-01T04:26:08;99900.78;;;12.26;72.29
58245;BME280;44550;43.864;25.986;2023-04-01T04:30:14;99901.72;;;12.22;73.03
58245;BME280;44550;43.864;25.986;2023-04-01T04:34:25;99899.25;;;12.08;73.67
58245;BME280;44550;43.864;25.986;2023-04-01T04:38:29;99901.22;;;11.91;75.17
58245;BME280;44550;43.864;25.986;2023-04-01T04:42:34;99915.28;;;11.81;76.33
58245;BME280;44550;43.864;25.986;2023-04-01T04:46:38;99909.13;;;11.88;76.09
58245;BME280;44550;43.864;25.986;2023-04-01T04:50:49;99908.19;;;11.92;76.64
58245;BME280;44550;43.864;25.986;2023-04-01T04:54:55;99909.84;;;12.02;76.09
58245;BME280;44550;43.864;25.986;2023-04-01T04:59:07;99909.84;;;12.01;76.72
58245;BME280;44550;43.864;25.986;2023-04-01T05:03:18;99901.91;;;12.05;76.84
58245;BME280;44550;43.864;25.986;2023-04-01T05:07:24;99897.63;;;11.99;77.53
58245;BME280;44550;43.864;25.986;2023-04-01T05:11:25;99892.44;;;11.96;77.80
58245;BME280;44550;43.864;25.986;2023-04-01T05:15:33;99891.78;;;11.74;78.86
58245;BME280;44550;43.864;25.986;2023-04-01T05:19:38;99879.34;;;11.96;78.64
58245;BME280;44550;43.864;25.986;2023-04-01T05:23:38;99884.56;;;12.60;76.57
58245;BME280;44550;43.864;25.986;2023-04-01T05:27:41;99873.59;;;12.90;74.88
58245;BME280;44550;43.864;25.986;2023-04-01T05:31:44;99890.06;;;12.99;75.31
58245;BME280;44550;43.864;25.986;2023-04-01T05:35:47;99892.22;;;12.75;78.54
58245;BME280;44550;43.864;25.986;2023-04-01T05:39:51;99883.50;;;12.73;80.01
58245;BME280;44550;43.864;25.986;2023-04-01T05:44:06;99881.09;;;12.58;81.66
58245;BME280;44550;43.864;25.986;2023-04-01T05:48:21;99884.00;;;12.39;82.53
58245;BME280;44550;43.864;25.986;2023-04-01T05:52:21;99874.94;;;12.62;81.36
58245;BME280;44550;43.864;25.986;2023-04-01T05:56:41;99874.00;;;12.66;79.43
58245;BME280;44550;43.864;25.986;2023-04-01T06:00:46;99862.50;;;12.73;79.79
58245;BME280;44550;43.864;25.986;2023-04-01T06:05:20;99858.84;;;12.83;80.18
58245;BME280;44550;43.864;25.986;2023-04-01T06:09:30;99849.97;;;12.92;80.12
58245;BME280;44550;43.864;25.986;2023-04-01T06:13:48;99844.34;;;13.12;78.65
58245;BME280;44550;43.864;25.986;2023-04-01T06:18:03;99844.00;;;12.82;79.65
58245;BME280;44550;43.864;25.986;2023-04-01T06:22:25;99844.16;;;13.23;79.35
58245;BME280;44550;43.864;25.986;2023-04-01T06:26:33;99848.41;;;13.76;77.37
58245;BME280;44550;43.864;25.986;2023-04-01T06:30:48;99848.94;;;13.92;76.49
58245;BME280;44550;43.864;25.986;2023-04-01T06:35:24;99849.06;;;13.86;75.55
58245;BME280;44550;43.864;25.986;2023-04-01T06:39:52;99862.50;;;13.71;76.04
58245;BME280;44550;43.864;25.986;2023-04-01T06:43:59;99863.47;;;13.68;74.45
58245;BME280;44550;43.864;25.986;2023-04-01T06:48:19;99857.25;;;13.26;76.39
58245;BME280;44550;43.864;25.986;2023-04-01T06:52:35;99848.56;;;13.21;76.79
58245;BME280;44550;43.864;25.986;2023-04-01T06:56:57;99853.97;;;13.61;75.69
58245;BME280;44550;43.864;25.986;2023-04-01T07:01:03;99854.38;;;13.84;74.24
58245;BME280;44550;43.864;25.986;2023-04-01T07:05:12;99850.16;;;14.18;72.97
58245;BME280;44550;43.864;25.986;2023-04-01T07:09:32;99844.44;;;14.38;71.96
58245;BME280;44550;43.864;25.986;2023-04-01T07:13:46;99852.69;;;14.61;71.12
58245;BME280;44550;43.864;25.986;2023-04-01T07:17:53;99862.56;;;14.50;69.85
58245;BME280;44550;43.864;25.986;2023-04-01T07:21:56;99856.53;;;14.45;69.65
58245;BME280;44550;43.864;25.986;2023-04-01T07:26:00;99857.94;;;14.22;70.23
58245;BME280;44550;43.864;25.986;2023-04-01T07:30:15;99861.13;;;13.96;71.42
58245;BME280;44550;43.864;25.986;2023-04-01T07:34:22;99865.28;;;14.06;71.77
58245;BME280;44550;43.864;25.986;2023-04-01T07:38:28;99860.34;;;14.31;70.88
58245;BME280;44550;43.864;25.986;2023-04-01T07:42:33;99867.56;;;14.62;68.76
58245;BME280;44550;43.864;25.986;2023-04-01T07:46:49;99861.94;;;14.77;66.54
58245;BME280;44550;43.864;25.986;2023-04-01T07:51:03;99867.13;;;14.80;64.36
58245;BME280;44550;43.864;25.986;2023-04-01T07:55:11;99871.00;;;15.01;65.51
58245;BME280;44550;43.864;25.986;2023-04-01T07:59:21;99856.91;;;15.04;68.14
58245;BME280;44550;43.864;25.986;2023-04-01T08:08:00;99840.56;;;15.57;62.66
58245;BME280;44550;43.864;25.986;2023-04-01T08:12:23;99823.97;;;15.53;62.99
58245;BME280;44550;43.864;25.986;2023-04-01T08:16:45;99833.38;;;15.62;62.69
58245;BME280;44550;43.864;25.986;2023-04-01T08:20:57;99827.81;;;15.72;60.95
58245;BME280;44550;43.864;25.986;2023-04-01T08:25:09;99817.47;;;15.66;61.37
58245;BME280;44550;43.864;25.986;2023-04-01T08:29:17;99814.22;;;15.57;60.99
58245;BME280;44550;43.864;25.986;2023-04-01T08:33:21;99822.16;;;15.55;60.94
58245;BME280;44550;43.864;25.986;2023-04-01T08:37:32;99814.84;;;15.65;60.50
58245;BME280;44550;43.864;25.986;2023-04-01T08:46:16;99818.16;;;15.73;58.42
58245;BME280;44550;43.864;25.986;2023-04-01T08:50:26;99822.78;;;15.94;58.21
58245;BME280;44550;43.864;25.986;2023-04-01T08:54:46;99817.00;;;16.11;57.23
58245;BME280;44550;43.864;25.986;2023-04-01T08:59:02;99819.56;;;16.14;56.45
58245;BME280;44550;43.864;25.986;2023-04-01T09:03:24;99812.78;;;16.34;56.08
58245;BME280;44550;43.864;25.986;2023-04-01T09:07:37;99807.16;;;16.44;54.71
58245;BME280;44550;43.864;25.986;2023-04-01T09:17:02;99811.06;;;16.05;55.56
58245;BME280;44550;43.864;25.986;2023-04-01T09:21:34;99806.38;;;15.85;56.59
58245;BME280;44550;43.864;25.986;2023-04-01T09:26:01;99809.66;;;15.93;57.86
58245;BME280;44550;43.864;25.986;2023-04-01T09:34:57;99817.88;;;15.82;61.76
58245;BME280;44550;43.864;25.986;2023-04-01T09:48:31;99810.94;;;16.09;65.13
58245;BME280;44550;43.864;25.986;2023-04-01T09:52:47;99800.81;;;16.24;66.57
58245;BME280;44550;43.864;25.986;2023-04-01T10:01:34;99798.31;;;16.45;66.58
58245;BME280;44550;43.864;25.986;2023-04-01T10:05:53;99782.88;;;16.88;63.63
58245;BME280;44550;43.864;25.986;2023-04-01T10:10:02;99785.47;;;16.63;65.49
58245;BME280;44550;43.864;25.986;2023-04-01T10:23:30;99777.69;;;16.85;61.98
58245;BME280;44550;43.864;25.986;2023-04-01T10:27:58;99765.75;;;17.00;60.89
58245;BME280;44550;43.864;25.986;2023-04-01T10:32:16;99752.94;;;17.37;59.50
58245;BME280;44550;43.864;25.986;2023-04-01T10:45:22;99765.59;;;17.29;55.62
58245;BME280;44550;43.864;25.986;2023-04-01T10:54:29;99752.69;;;16.95;57.18
58245;BME280;44550;43.864;25.986;2023-04-01T10:59:02;99746.56;;;16.95;57.58
58245;BME280;44550;43.864;25.986;2023-04-01T11:31:22;99716.97;;;16.58;61.85
58245;BME280;44550;43.864;25.986;2023-04-01T11:40:43;99694.66;;;17.19;60.99
58245;BME280;44550;43.864;25.986;2023-04-01T11:45:16;99689.50;;;17.14;61.49
58245;BME280;44550;43.864;25.986;2023-04-01T12:04:49;99680.66;;;17.15;63.68
58245;BME280;44550;43.864;25.986;2023-04-01T12:09:39;99673.00;;;17.32;62.59
58245;BME280;44550;43.864;25.986;2023-04-01T12:15:13;99670.47;;;17.29;62.34
58245;BME280;44550;43.864;25.986;2023-04-01T12:45:40;99651.88;;;17.54;62.52
58245;BME280;44550;43.864;25.986;2023-04-01T12:50:34;99651.50;;;17.64;61.84
58245;BME280;44550;43.864;25.986;2023-04-01T12:55:45;99654.78;;;17.48;62.32
58245;BME280;44550;43.864;25.986;2023-04-01T13:09:28;99661.69;;;17.29;63.56
58245;BME280;44550;43.864;25.986;2023-04-01T13:17:57;99664.84;;;17.38;63.37
58245;BME280;44550;43.864;25.986;2023-04-01T13:26:27;99654.25;;;17.38;63.43
58245;BME280;44550;43.864;25.986;2023-04-01T13:30:44;99653.59;;;17.55;62.57
58245;BME280;44550;43.864;25.986;2023-04-01T13:39:42;99654.88;;;17.45;63.28
58245;BME280;44550;43.864;25.986;2023-04-01T13:44:21;99658.81;;;17.57;62.47
58245;BME280;44550;43.864;25.986;2023-04-01T13:53:32;99642.97;;;17.57;61.82
58245;BME280;44550;43.864;25.986;2023-04-01T13:58:17;99643.81;;;17.35;62.56
58245;BME280;44550;43.864;25.986;2023-04-01T14:07:58;99646.16;;;17.20;65.48
58245;BME280;44550;43.864;25.986;2023-04-01T14:12:19;99650.00;;;17.11;65.54
58245;BME280;44550;43.864;25.986;2023-04-01T14:16:57;99660.78;;;17.05;66.43
58245;BME280;44550;43.864;25.986;2023-04-01T14:21:13;99658.97;;;17.07;66.62
58245;BME280;44550;43.864;25.986;2023-04-01T14:34:48;99638.13;;;17.23;71.76
58245;BME280;44550;43.864;25.986;2023-04-01T14:39:08;99633.53;;;17.04;72.49
58245;BME280;44550;43.864;25.986;2023-04-01T14:43:16;99619.41;;;16.57;74.44
58245;BME280;44550;43.864;25.986;2023-04-01T14:51:43;99583.31;;;16.07;77.09
58245;BME280;44550;43.864;25.986;2023-04-01T14:55:49;99602.91;;;16.25;78.40
58245;BME280;44550;43.864;25.986;2023-04-01T14:59:51;99607.44;;;16.47;76.41
58245;BME280;44550;43.864;25.986;2023-04-01T15:03:55;99598.97;;;16.62;74.83
58245;BME280;44550;43.864;25.986;2023-04-01T15:08:07;99597.91;;;16.67;75.08
58245;BME280;44550;43.864;25.986;2023-04-01T15:12:14;99606.16;;;16.83;75.88
58245;BME280;44550;43.864;25.986;2023-04-01T15:16:22;99597.53;;;16.78;75.64
58245;BME280;44550;43.864;25.986;2023-04-01T15:24:56;99603.78;;;16.51;77.73
58245;BME280;44550;43.864;25.986;2023-04-01T15:29:03;99606.19;;;16.32;78.84
58245;BME280;44550;43.864;25.986;2023-04-01T15:38:19;99615.16;;;16.28;79.53
58245;BME280;44550;43.864;25.986;2023-04-01T15:42:40;99615.41;;;16.20;77.92
58245;BME280;44550;43.864;25.986;2023-04-01T15:46:48;99627.13;;;16.11;77.98
58245;BME280;44550;43.864;25.986;2023-04-01T15:50:52;99627.78;;;15.91;79.46
58245;BME280;44550;43.864;25.986;2023-04-01T15:55:01;99613.84;;;15.88;80.65
58245;BME280;44550;43.864;25.986;2023-04-01T15:59:17;99619.69;;;15.97;81.12
58245;BME280;44550;43.864;25.986;2023-04-01T16:03:37;99613.22;;;15.51;83.95
58245;BME280;44550;43.864;25.986;2023-04-01T16:07:49;99622.59;;;15.32;85.49
58245;BME280;44550;43.864;25.986;2023-04-01T16:11:57;99638.28;;;15.07;86.50
58245;BME280;44550;43.864;25.986;2023-04-01T16:16:07;99638.50;;;15.29;86.20
58245;BME280;44550;43.864;25.986;2023-04-01T16:20:18;99643.56;;;15.65;84.71
58245;BME280;44550;43.864;25.986;2023-04-01T16:24:24;99649.13;;;15.84;83.07
58245;BME280;44550;43.864;25.986;2023-04-01T16:28:31;99652.56;;;15.86;82.46
58245;BME280;44550;43.864;25.986;2023-04-01T16:32:41;99676.78;;;15.70;84.60
58245;BME280;44550;43.864;25.986;2023-04-01T16:36:52;99690.31;;;15.58;86.88
58245;BME280;44550;43.864;25.986;2023-04-01T16:41:03;99694.59;;;14.70;93.45
58245;BME280;44550;43.864;25.986;2023-04-01T16:45:31;99692.91;;;13.98;100.00
58245;BME280;44550;43.864;25.986;2023-04-01T16:50:00;99687.66;;;13.57;100.00
58245;BME280;44550;43.864;25.986;2023-04-01T16:59:03;99653.34;;;13.28;100.00
58245;BME280;44550;43.864;25.986;2023-04-01T17:03:52;99683.81;;;13.35;100.00
58245;BME280;44550;43.864;25.986;2023-04-01T17:08:13;99658.59;;;13.28;100.00
58245;BME280;44550;43.864;25.986;2023-04-01T17:12:25;99665.78;;;13.57;100.00
58245;BME280;44550;43.864;25.986;2023-04-01T17:17:01;99670.06;;;13.62;100.00
58245;BME280;44550;43.864;25.986;2023-04-01T17:21:33;99683.19;;;13.21;100.00
58245;BME280;44550;43.864;25.986;2023-04-01T17:26:09;99661.50;;;13.12;100.00
58245;BME280;44550;43.864;25.986;2023-04-01T17:30:28;99654.78;;;12.99;100.00
58245;BME280;44550;43.864;25.986;2023-04-01T17:34:54;99663.66;;;12.92;100.00
58245;BME280;44550;43.864;25.986;2023-04-01T17:49:14;99667.63;;;12.20;100.00
58245;BME280;44550;43.864;25.986;2023-04-01T17:53:30;99671.19;;;12.16;100.00
58245;BME280;44550;43.864;25.986;2023-04-01T17:57:46;99666.09;;;12.07;100.00
58245;BME280;44550;43.864;25.986;2023-04-01T18:02:00;99657.13;;;12.20;100.00
58245;BME280;44550;43.864;25.986;2023-04-01T18:06:12;99657.59;;;12.43;100.00
58245;BME280;44550;43.864;25.986;2023-04-01T18:10:21;99670.81;;;12.84;100.00
58245;BME280;44550;43.864;25.986;2023-04-01T18:14:57;99677.53;;;12.99;100.00
58245;BME280;44550;43.864;25.986;2023-04-01T18:19:14;99675.28;;;12.79;100.00
58245;BME280;44550;43.864;25.986;2023-04-01T18:23:38;99671.59;;;12.89;100.00
58245;BME280;44550;43.864;25.986;2023-04-01T18:28:11;99666.56;;;12.78;100.00
58245;BME280;44550;43.864;25.986;2023-04-01T18:32:33;99667.97;;;12.50;100.00
58245;BME280;44550;43.864;25.986;2023-04-01T18:36:53;99686.66;;;12.30;100.00
58245;BME280;44550;43.864;25.986;2023-04-01T18:41:28;99686.78;;;12.23;100.00
58245;BME280;44550;43.864;25.986;2023-04-01T18:45:35;99694.63;;;12.25;100.00
58245;BME280;44550;43.864;25.986;2023-04-01T18:49:39;99711.06;;;11.74;100.00
58245;BME280;44550;43.864;25.986;2023-04-01T18:53:43;99713.16;;;11.52;100.00
58245;BME280;44550;43.864;25.986;2023-04-01T18:57:52;99716.72;;;11.45;100.00
58245;BME280;44550;43.864;25.986;2023-04-01T19:01:58;99715.88;;;11.43;100.00
58245;BME280;44550;43.864;25.986;2023-04-01T19:06:12;99723.38;;;11.68;100.00
58245;BME280;44550;43.864;25.986;2023-04-01T19:10:37;99743.31;;;11.78;100.00
58245;BME280;44550;43.864;25.986;2023-04-01T19:19:09;99765.75;;;12.02;100.00
58245;BME280;44550;43.864;25.986;2023-04-01T19:27:35;99758.28;;;11.70;100.00
58245;BME280;44550;43.864;25.986;2023-04-01T19:31:41;99763.56;;;11.67;100.00
58245;BME280;44550;43.864;25.986;2023-04-01T19:35:52;99762.78;;;11.60;100.00
58245;BME280;44550;43.864;25.986;2023-04-01T19:39:56;99761.84;;;11.64;100.00
58245;BME280;44550;43.864;25.986;2023-04-01T19:44:12;99761.66;;;11.78;100.00
58245;BME280;44550;43.864;25.986;2023-04-01T19:48:24;99763.41;;;11.79;100.00
58245;BME280;44550;43.864;25.986;2023-04-01T19:52:44;99761.66;;;11.80;100.00
58245;BME280;44550;43.864;25.986;2023-04-01T19:56:51;99753.16;;;11.61;100.00
58245;BME280;44550;43.864;25.986;2023-04-01T20:01:00;99763.59;;;11.64;100.00
58245;BME280;44550;43.864;25.986;2023-04-01T20:05:20;99771.19;;;11.84;100.00
58245;BME280;44550;43.864;25.986;2023-04-01T20:09:43;99768.56;;;11.85;100.00
58245;BME280;44550;43.864;25.986;2023-04-01T20:13:54;99774.59;;;11.92;100.00
58245;BME280;44550;43.864;25.986;2023-04-01T20:18:00;99782.59;;;11.80;100.00
58245;BME280;44550;43.864;25.986;2023-04-01T20:22:22;99781.72;;;11.81;100.00
58245;BME280;44550;43.864;25.986;2023-04-01T20:26:35;99779.94;;;11.84;100.00
58245;BME280;44550;43.864;25.986;2023-04-01T20:44:00;99783.69;;;11.63;100.00
58245;BME280;44550;43.864;25.986;2023-04-01T20:52:29;99800.72;;;11.22;100.00
58245;BME280;44550;43.864;25.986;2023-04-01T20:56:39;99800.59;;;11.36;100.00
58245;BME280;44550;43.864;25.986;2023-04-01T21:00:49;99808.72;;;11.13;100.00
58245;BME280;44550;43.864;25.986;2023-04-01T21:05:04;99809.63;;;11.08;100.00
58245;BME280;44550;43.864;25.986;2023-04-01T21:14:00;99814.03;;;11.02;100.00
58245;BME280;44550;43.864;25.986;2023-04-01T21:18:12;99821.06;;;10.97;100.00
58245;BME280;44550;43.864;25.986;2023-04-01T21:22:17;99824.47;;;11.05;100.00
58245;BME280;44550;43.864;25.986;2023-04-01T21:26:32;99828.94;;;10.94;100.00
58245;BME280;44550;43.864;25.986;2023-04-01T21:30:47;99832.31;;;11.05;100.00
58245;BME280;44550;43.864;25.986;2023-04-01T21:35:03;99829.81;;;10.96;100.00
58245;BME280;44550;43.864;25.986;2023-04-01T21:39:08;99831.56;;;10.94;100.00
58245;BME280;44550;43.864;25.986;2023-04-01T21:43:19;99830.84;;;10.77;100.00
58245;BME280;44550;43.864;25.986;2023-04-01T22:00:48;99832.66;;;10.67;100.00
58245;BME280;44550;43.864;25.986;2023-04-01T22:04:55;99839.72;;;10.54;100.00
58245;BME280;44550;43.864;25.986;2023-04-01T22:09:09;99838.88;;;10.54;100.00
58245;BME280;44550;43.864;25.986;2023-04-01T22:13:12;99838.16;;;10.30;100.00
58245;BME280;44550;43.864;25.986;2023-04-01T22:17:19;99840.78;;;10.23;100.00
58245;BME280;44550;43.864;25.986;2023-04-01T22:21:22;99844.28;;;10.28;100.00
58245;BME280;44550;43.864;25.986;2023-04-01T22:25:29;99841.66;;;10.31;100.00
58245;BME280;44550;43.864;25.986;2023-04-01T22:29:35;99853.84;;;10.33;100.00
58245;BME280;44550;43.864;25.986;2023-04-01T22:33:42;99825.16;;;10.17;100.00
58245;BME280;44550;43.864;25.986;2023-04-01T22:37:48;99847.75;;;10.30;100.00
58245;BME280;44550;43.864;25.986;2023-04-01T22:41:55;99849.47;;;10.32;100.00
58245;BME280;44550;43.864;25.986;2023-04-01T22:46:03;99838.97;;;10.39;100.00
58245;BME280;44550;43.864;25.986;2023-04-01T22:50:22;99838.19;;;10.26;100.00
58245;BME280;44550;43.864;25.986;2023-04-01T22:54:27;99833.03;;;10.14;100.00
58245;BME280;44550;43.864;25.986;2023-04-01T22:58:32;99846.91;;;10.20;100.00
58245;BME280;44550;43.864;25.986;2023-04-01T23:02:38;99841.63;;;10.29;100.00
58245;BME280;44550;43.864;25.986;2023-04-01T23:06:46;99841.66;;;10.31;100.00
58245;BME280;44550;43.864;25.986;2023-04-01T23:10:52;99843.34;;;10.35;100.00
58245;BME280;44550;43.864;25.986;2023-04-01T23:15:10;99846.91;;;10.23;100.00
58245;BME280;44550;43.864;25.986;2023-04-01T23:19:24;99844.34;;;10.06;100.00
58245;BME280;44550;43.864;25.986;2023-04-01T23:23:45;99836.59;;;10.00;100.00
58245;BME280;44550;43.864;25.986;2023-04-01T23:27:51;99840.06;;;9.95;100.00
58245;BME280;44550;43.864;25.986;2023-04-01T23:32:04;99842.66;;;10.01;100.00
58245;BME280;44550;43.864;25.986;2023-04-01T23:36:10;99841.81;;;10.00;100.00
58245;BME280;44550;43.864;25.986;2023-04-01T23:40:38;99850.50;;;10.01;100.00
58245;BME280;44550;43.864;25.986;2023-04-01T23:44:48;99846.16;;;9.95;100.00
58245;BME280;44550;43.864;25.986;2023-04-01T23:49:13;99843.63;;;9.78;100.00
58245;BME280;44550;43.864;25.986;2023-04-01T23:53:23;99838.44;;;9.74;100.00
58245;BME280;44550;43.864;25.986;2023-04-01T23:57:31;99838.41;;;9.78;100.00
